地図

経路データ

SID SEASON NUMBER BASIN SUBBASIN NAME ISO_TIME NATURE LAT LON WMO_WIND WMO_PRES WMO_AGENCY TRACK_TYPE DIST2LAND LANDFALL IFLAG USA_AGENCY USA_ATCF_ID USA_LAT USA_LON USA_RECORD USA_STATUS USA_WIND USA_PRES USA_SSHS USA_R34_NE USA_R34_SE USA_R34_SW USA_R34_NW USA_R50_NE USA_R50_SE USA_R50_SW USA_R50_NW USA_R64_NE USA_R64_SE USA_R64_SW USA_R64_NW USA_POCI USA_ROCI USA_RMW USA_EYE TOKYO_LAT TOKYO_LON TOKYO_GRADE TOKYO_WIND TOKYO_PRES TOKYO_R50_DIR TOKYO_R50_LONG TOKYO_R50_SHORT TOKYO_R30_DIR TOKYO_R30_LONG TOKYO_R30_SHORT TOKYO_LAND CMA_LAT CMA_LON CMA_CAT CMA_WIND CMA_PRES HKO_LAT HKO_LON HKO_CAT HKO_WIND HKO_PRES NEWDELHI_LAT NEWDELHI_LON NEWDELHI_GRADE NEWDELHI_WIND NEWDELHI_PRES NEWDELHI_CI NEWDELHI_DP NEWDELHI_POCI REUNION_LAT REUNION_LON REUNION_TYPE REUNION_WIND REUNION_PRES REUNION_TNUM REUNION_CI REUNION_RMW REUNION_R34_NE REUNION_R34_SE REUNION_R34_SW REUNION_R34_NW REUNION_R50_NE REUNION_R50_SE REUNION_R50_SW REUNION_R50_NW REUNION_R64_NE REUNION_R64_SE REUNION_R64_SW REUNION_R64_NW BOM_LAT BOM_LON BOM_TYPE BOM_WIND BOM_PRES BOM_TNUM BOM_CI BOM_RMW BOM_R34_NE BOM_R34_SE BOM_R34_SW BOM_R34_NW BOM_R50_NE BOM_R50_SE BOM_R50_SW BOM_R50_NW BOM_R64_NE BOM_R64_SE BOM_R64_SW BOM_R64_NW BOM_ROCI BOM_POCI BOM_EYE BOM_POS_METHOD BOM_PRES_METHOD NADI_LAT NADI_LON NADI_CAT NADI_WIND NADI_PRES WELLINGTON_LAT WELLINGTON_LON WELLINGTON_WIND WELLINGTON_PRES DS824_LAT DS824_LON DS824_STAGE DS824_WIND DS824_PRES TD9636_LAT TD9636_LON TD9636_STAGE TD9636_WIND TD9636_PRES TD9635_LAT TD9635_LON TD9635_WIND TD9635_PRES TD9635_ROCI NEUMANN_LAT NEUMANN_LON NEUMANN_CLASS NEUMANN_WIND NEUMANN_PRES MLC_LAT MLC_LON MLC_CLASS MLC_WIND MLC_PRES USA_GUST BOM_GUST BOM_GUST_PER REUNION_GUST REUNION_GUST_PER USA_SEAHGT USA_SEARAD_NE USA_SEARAD_SE USA_SEARAD_SW USA_SEARAD_NW STORM_SPEED STORM_DIR
2020337N08085 2020 46 NI BB BUREVI 2020-12-01 12:00:00 NR 7.80000 84.8000 PROVISIONAL 331 299 O_____________ tcvitals BB052020 7.80000 84.8000 35 1003 0 95 70 70 95 1009 190 45 7 286
2020337N08085 2020 46 NI BB BUREVI 2020-12-01 15:00:00 NR 7.90003 84.4464 PROVISIONAL 288 259 P_____________ BB052020 7.89510 84.4424 35 1003 0 95 70 70 95 1009 195 45 8 293
2020337N08085 2020 46 NI BB BUREVI 2020-12-01 18:00:00 NR 8.10000 84.1000 PROVISIONAL 259 237 O_____________ tcvitals BB052020 8.10000 84.1000 35 1003 0 95 70 70 95 1009 200 45 9 309
2020337N08085 2020 46 NI BB BUREVI 2020-12-01 21:00:00 NR 8.45009 83.7606 PROVISIONAL 242 217 P_____________ BB052020 8.46490 83.7726 40 1001 0 95 70 67 95 1009 192 45 10 315
2020337N08085 2020 46 NI BB BUREVI 2020-12-02 00:00:00 NR 8.80000 83.4000 PROVISIONAL 217 188 O_____________ tcvitals BB052020 8.80000 83.4000 45 999 0 95 70 65 95 1009 185 45 10 304
2020337N08085 2020 46 NI BB BUREVI 2020-12-02 03:00:00 NR 8.99461 82.9555 PROVISIONAL 188 153 P_____________ BB052020 8.91020 82.8549 42 1000 0 95 72 65 95 1009 185 45 9 290
2020337N08085 2020 46 NI BB BUREVI 2020-12-02 06:00:00 NR 9.09801 82.5604 PROVISIONAL 153 135 O_____________ tcvitals BB052020 8.90000 82.4000 39 1002 0 95 75 65 95 1009 185 45 6 285
2020337N08085 2020 46 NI BB BUREVI 2020-12-02 09:00:00 NR 9.15477 82.3675 PROVISIONAL 141 123 P_____________ BB052020 8.84230 82.3425 39 1002 0 85 62 57 85 1009 185 45 4 284
2020337N08085 2020 46 NI BB BUREVI 2020-12-02 12:00:00 NR 9.19098 82.1884 PROVISIONAL 123 102 O_____________ tcvitals BB052020 8.80000 82.3000 39 1002 0 75 50 50 75 1009 185 45 5 283
2020337N08085 2020 46 NI BB BUREVI 2020-12-02 15:00:00 NR 9.27794 81.8328 PROVISIONAL 94 69 P_____________ BB052020 8.89265 81.8951 39 1001 0 75 55 57 85 1008 185 45 8 282
2020337N08085 2020 46 NI BB BUREVI 2020-12-02 18:00:00 NR 9.35046 81.4400 PROVISIONAL 64 34 O_____________ tcvitals BB052020 9.00000 81.4000 39 1001 0 75 60 65 95 1008 185 45 7 276
2020337N08085 2020 46 NI BB BUREVI 2020-12-02 21:00:00 NR 9.35684 81.1257 PROVISIONAL 34 0 P_____________ BB052020 8.99987 81.0499 39 1000 0 77 57 65 102 1007 180 45 6 270
2020337N08085 2020 46 NI BB BUREVI 2020-12-03 00:00:00 NR 9.34801 80.8211 PROVISIONAL 0 0 O_____________ tcvitals BB052020 9.00000 80.7000 39 1000 0 80 55 65 110 1007 175 45 6 271
2020337N08085 2020 46 NI BB BUREVI 2020-12-03 03:00:00 NR 9.37355 80.4734 PROVISIONAL 0 0 P_____________ BB052020 9.08505 80.2500 37 1001 0 80 52 65 110 1007 162 45 7 275
2020337N08085 2020 46 NI BB BUREVI 2020-12-03 06:00:00 NR 9.40518 80.1371 PROVISIONAL 0 0 O_____________ tcvitals BB052020 9.20000 79.8000 35 1003 0 80 50 65 110 1008 150 45 6 275
2020337N08085 2020 46 NI BB BUREVI 2020-12-03 09:00:00 NR 9.43353 79.8200 PROVISIONAL 32 32 P_____________ BB052020 9.31595 79.3722 35 1002 0 80 50 62 110 1007 115 45 5 274
2020337N08085 2020 46 NI BB BUREVI 2020-12-03 12:00:00 NR 9.44352 79.5937 PROVISIONAL 54 54 O_____________ tcvitals BB052020 9.40000 79.1000 35 1001 0 80 50 60 110 1006 80 45 3 267
2020337N08085 2020 46 NI BB BUREVI 2020-12-03 15:00:00 NR 9.41967 79.5072 PROVISIONAL 56 56 P_____________ BB052020 9.41527 79.0890 35 1000 0 1 232
2020337N08085 2020 46 NI BB BUREVI 2020-12-03 18:00:00 NR 9.37838 79.5150 PROVISIONAL 56 54 I_____________ tcvitals BB052020 9.38754 79.2375 35 1000 0 1 145
2020337N08085 2020 46 NI BB BUREVI 2020-12-03 21:00:00 NR 9.33432 79.5591 PROVISIONAL 54 54 P_____________ BB052020 9.34288 79.4366 35 1000 0 1 134
2020337N08085 2020 46 NI BB BUREVI 2020-12-04 00:00:00 NR 9.30000 79.6000 PROVISIONAL 54 54 O_____________ tcvitals BB052020 9.30000 79.6000 35 1000 0 75 55 50 85 1006 126 35 0 0
2020337N08085 2020 46 NI BB BUREVI 2020-12-04 03:00:00 NR 9.29372 79.5709 PROVISIONAL 54 54 P_____________ BB052020 9.29342 79.5847 35 1001 0 72 57 50 82 1007 188 35 1 270
2020337N08085 2020 46 NI BB BUREVI 2020-12-04 06:00:00 NR 9.30000 79.5000 PROVISIONAL 54 43 O_____________ tcvitals BB052020 9.30000 79.5000 35 1003 0 70 60 50 80 1009 250 35 1 283
2020337N08085 2020 46 NI BB BUREVI 2020-12-04 09:00:00 NR 9.32250 79.4425 PROVISIONAL 43 43 P_____________ BB052020 9.32250 79.4425 32 1001 -1 1007 200 35 1 270
2020337N08085 2020 46 NI BB BUREVI 2020-12-04 12:00:00 NR 9.30000 79.4000 PROVISIONAL 43 43 O_____________ tcvitals BB052020 9.30000 79.4000 29 1000 -1 1006 150 35 2 201
2020337N08085 2020 46 NI BB BUREVI 2020-12-04 15:00:00 NR 9.15749 79.3700 PROVISIONAL 45 45 P_____________ BB052020 9.15749 79.3700 29 1000 -1 1006 150 35 3 0
2020337N08085 2020 46 NI BB BUREVI 2020-12-04 18:00:00 NR 9.00000 79.4000 PROVISIONAL 55 43 O_____________ tcvitals BB052020 9.00000 79.4000 29 1000 -1 1006 150 35 3 150
2020337N08085 2020 46 NI BB BUREVI 2020-12-04 21:00:00 NR 8.90499 79.5126 PROVISIONAL 43 21 P_____________ BB052020 8.90499 79.5126 29 1000 -1 1006 140 32 3 109
2020337N08085 2020 46 NI BB BUREVI 2020-12-05 00:00:00 NR 8.90000 79.7000 PROVISIONAL 21 10 O_____________ tcvitals BB052020 8.90000 79.7000 29 1001 -1 1007 130 30 5 71
2020337N08085 2020 46 NI BB BUREVI 2020-12-05 03:00:00 NR 9.08005 80.0174 PROVISIONAL 10 0 P_____________ BB052020 9.08005 80.0174 27 1002 -1 1007 130 30 6 59
2020337N08085 2020 46 NI BB BUREVI 2020-12-05 06:00:00 NR 9.20000 80.2000 PROVISIONAL 0 0 O_____________ tcvitals BB052020 9.20000 80.2000 25 1003 -1 1007 130 30 2 221
2020337N08085 2020 46 NI BB BUREVI 2020-12-05 09:00:00 NR 8.95763 79.9148 PROVISIONAL 11 0 P_____________ BB052020 8.95763 79.9148 25 1003 -1 1007 130 30 8 230
2020337N08085 2020 46 NI BB BUREVI 2020-12-05 12:00:00 NR 8.70000 79.6000 PROVISIONAL 39 39 O_____________ tcvitals BB052020 8.70000 79.6000 25 1004 -1 1007 130 30 4 228
2020337N08085 2020 46 NI BB BUREVI 2020-12-05 15:00:00 NR 8.70998 79.6326 PROVISIONAL 39 0 P_____________ BB052020 8.70998 79.6326 22 1005 -1 1008 115 30 4 56
2020337N08085 2020 46 NI BB BUREVI 2020-12-05 18:00:00 NR 8.90000 79.9000 PROVISIONAL 0 O_____________ tcvitals BB052020 8.90000 79.9000 19 1007 -1 1009 100 30 7 54

IBTrACS Databaseについて

本データベースは、米国NOAAが公開する1842年以降の世界の熱帯低気圧のベストトラックデータアーカイブInternational Best Track Archive for Climate Stewardship (IBTrACS)を、ウェブで閲覧しやすい形式に変換したものです。

最終更新日:2021-11-26